Makinen, Minnesota
Current Conditions -  °F | °C
As of 1:11 PM on Saturday 25 Oct 2014 (Local Time) from KEVM Reporting Station
Clear Clear  
Wind Chill: 54°   Ceiling: Unl
Heat Index: 54°   Visibility: 10mi
Dew Point: 30°   Wind: 20mph
Humidity: 41%   Direction: 290°WNW
Pressure: 29.91"   Gusts: 28mph
Location:  47.36°N, 92.37°W
Report Text: KEVM 251811Z AUTO 29017G24KT 10SM CLR 12/M01 A2991 RMK AO2
Loading
Personal Weather Stations






























Interactive Weather Map
Tropical Storm Tracking
New forecast layout! Learn more

10-Day Weather Forecast

Advertisements
Track Severe Weather on mobile